createdAt,value
2023-05-08T00:04:40.602Z,101780.78
2023-05-08T00:09:43.147Z,101787.84
2023-05-08T00:14:45.662Z,101798.72
2023-05-08T00:19:48.398Z,101798.50
2023-05-08T00:24:50.929Z,101790.94
2023-05-08T00:29:53.487Z,101799.94
2023-05-08T00:34:56.586Z,101801.59
2023-05-08T00:39:59.995Z,101801.41
2023-05-08T00:45:03.485Z,101807.88
2023-05-08T00:50:08.770Z,101819.31
2023-05-08T00:55:11.358Z,101824.81
2023-05-08T01:00:15.408Z,101831.53
2023-05-08T01:05:18.170Z,101832.94
2023-05-08T01:10:20.845Z,101826.75
2023-05-08T01:15:44.629Z,101827.31
2023-05-08T01:20:53.811Z,101828.47
2023-05-08T01:25:59.613Z,101846.88
2023-05-08T01:31:32.354Z,101855.06
2023-05-08T01:36:41.727Z,101850.41
2023-05-08T01:41:54.961Z,101852.63
2023-05-08T01:46:58.772Z,101856.16
2023-05-08T01:52:07.650Z,101862.81
2023-05-08T01:57:12.034Z,101873.47
2023-05-08T02:02:15.440Z,101870.97
2023-05-08T02:07:21.291Z,101883.81
2023-05-08T02:12:26.204Z,101879.69
2023-05-08T02:17:31.212Z,101881.38
2023-05-08T02:22:34.922Z,101887.34
2023-05-08T02:27:38.902Z,101888.13
2023-05-08T02:32:45.415Z,101884.84
2023-05-08T02:37:52.027Z,101889.31
2023-05-08T02:42:55.297Z,101895.31
2023-05-08T02:48:19.039Z,101899.72
2023-05-08T02:53:34.839Z,101902.75
2023-05-08T02:58:46.326Z,101912.81
2023-05-08T03:03:59.953Z,101919.47
2023-05-08T03:09:04.433Z,101917.59
2023-05-08T03:14:11.588Z,101927.56
2023-05-08T03:19:28.265Z,101916.41
2023-05-08T03:24:34.085Z,101910.53
2023-05-08T03:29:40.243Z,101918.97
2023-05-08T03:34:43.492Z,101927.63
2023-05-08T03:39:46.564Z,101921.16
2023-05-08T03:44:51.746Z,101910.59
2023-05-08T03:49:54.724Z,101917.47
2023-05-08T03:54:57.278Z,101907.66
2023-05-08T04:00:22.731Z,101915.75
2023-05-08T04:05:57.946Z,101919.69
2023-05-08T04:11:15.823Z,101912.91
2023-05-08T04:16:25.611Z,101907.56
2023-05-08T04:21:32.074Z,101909.59
2023-05-08T04:26:35.454Z,101906.88
2023-05-08T04:31:40.614Z,101905.13
2023-05-08T04:36:43.598Z,101907.94
2023-05-08T04:41:48.275Z,101908.44
2023-05-08T04:46:51.045Z,101897.19
2023-05-08T04:51:53.804Z,101917.09
2023-05-08T04:56:56.817Z,101899.22
2023-05-08T05:02:02.675Z,101922.88
2023-05-08T05:07:06.519Z,101912.00
2023-05-08T05:12:09.329Z,101905.94
2023-05-08T05:17:12.317Z,101911.09
2023-05-08T05:22:15.070Z,101907.22
2023-05-08T05:27:20.668Z,101901.97
2023-05-08T05:32:24.322Z,101900.41
2023-05-08T05:37:27.150Z,101893.50
2023-05-08T05:42:30.155Z,101912.22
2023-05-08T05:47:32.688Z,101914.41
2023-05-08T05:52:35.659Z,101910.44
2023-05-08T05:57:38.376Z,101896.47
2023-05-08T06:02:42.255Z,101896.31
2023-05-08T06:07:47.236Z,101896.41
2023-05-08T06:12:49.929Z,101902.06
2023-05-08T06:17:53.232Z,101908.97
2023-05-08T06:22:55.950Z,101901.09
2023-05-08T06:27:58.578Z,101903.78
2023-05-08T06:33:01.352Z,101894.84
2023-05-08T06:38:04.022Z,101896.19
2023-05-08T06:43:06.507Z,101887.63
2023-05-08T06:48:09.256Z,101904.19
2023-05-08T06:53:11.837Z,101912.34
2023-05-08T06:58:14.287Z,101901.84
2023-05-08T07:03:16.810Z,101913.00
2023-05-08T07:08:19.302Z,101904.09
2023-05-08T07:13:22.407Z,101904.53
2023-05-08T07:18:24.994Z,101903.19
2023-05-08T07:23:27.873Z,101909.94
2023-05-08T07:28:30.433Z,101915.84
2023-05-08T07:33:34.289Z,101912.34
2023-05-08T07:38:37.317Z,101905.53
2023-05-08T07:43:39.825Z,101913.75
2023-05-08T07:48:42.548Z,101908.50
2023-05-08T07:53:45.165Z,101916.84
2023-05-08T07:58:48.175Z,101905.28
2023-05-08T08:03:50.828Z,101898.25
2023-05-08T08:08:53.391Z,101894.50
2023-05-08T08:13:56.107Z,101897.66
2023-05-08T08:18:58.754Z,101887.69
2023-05-08T08:24:01.260Z,101866.78
2023-05-08T08:29:04.223Z,101858.22
2023-05-08T08:34:06.950Z,101876.63
2023-05-08T08:39:11.993Z,101871.72
2023-05-08T08:44:15.628Z,101877.13
2023-05-08T08:49:20.021Z,101865.75
2023-05-08T08:54:24.682Z,101870.53
2023-05-08T08:59:29.248Z,101859.41
2023-05-08T09:04:32.184Z,101858.19
2023-05-08T09:09:37.990Z,101855.78
2023-05-08T09:14:40.603Z,101841.53
2023-05-08T09:19:43.800Z,101851.84
2023-05-08T09:25:02.541Z,101858.38
2023-05-08T09:30:07.472Z,101855.03
2023-05-08T09:35:12.904Z,101846.41
2023-05-08T09:40:18.813Z,101851.06
2023-05-08T09:45:33.671Z,101838.78
2023-05-08T09:50:36.209Z,101846.63
2023-05-08T09:55:48.665Z,101864.97
2023-05-08T10:00:51.817Z,101862.56
2023-05-08T10:05:54.288Z,101863.69
2023-05-08T10:11:14.655Z,101866.91
2023-05-08T10:16:23.137Z,101869.69
2023-05-08T10:21:29.041Z,101877.03
2023-05-08T10:26:34.166Z,101875.66
2023-05-08T10:31:40.908Z,101867.97
2023-05-08T10:36:43.714Z,101865.75
2023-05-08T10:41:47.440Z,101875.06
2023-05-08T10:46:58.158Z,101866.22
2023-05-08T10:52:25.126Z,101856.50
2023-05-08T10:57:27.691Z,101887.41
2023-05-08T11:02:31.931Z,101867.69
2023-05-08T11:08:01.615Z,101899.84
2023-05-08T11:13:05.712Z,101883.66
2023-05-08T11:18:14.437Z,101867.84
2023-05-08T11:23:33.915Z,101851.75
2023-05-08T11:28:42.012Z,101870.81
2023-05-08T11:33:44.564Z,101859.00
2023-05-08T11:39:07.967Z,101858.88
2023-05-08T11:44:17.624Z,101852.75
2023-05-08T11:49:27.037Z,101847.41
2023-05-08T11:54:32.153Z,101850.31
2023-05-08T11:59:38.005Z,101855.56
2023-05-08T12:04:47.572Z,101842.16
2023-05-08T12:09:50.582Z,101828.34
2023-05-08T12:14:53.218Z,101830.88
2023-05-08T12:19:56.811Z,101812.50
2023-05-08T12:24:59.263Z,101827.13
2023-05-08T12:30:07.767Z,101811.97
2023-05-08T12:35:12.639Z,101822.84
2023-05-08T12:40:32.480Z,101815.88
2023-05-08T12:45:39.604Z,101819.25
2023-05-08T12:50:43.928Z,101829.53
2023-05-08T12:55:55.196Z,101816.72
2023-05-08T13:01:13.615Z,101801.00
2023-05-08T13:06:23.239Z,101801.53
2023-05-08T13:11:34.213Z,101806.06
2023-05-08T13:16:44.691Z,101796.78
2023-05-08T13:21:48.210Z,101821.69
2023-05-08T13:26:50.777Z,101819.41
2023-05-08T13:31:53.664Z,101826.63
2023-05-08T13:36:56.297Z,101844.78
2023-05-08T13:41:59.104Z,101817.69
2023-05-08T13:47:01.746Z,101820.16
2023-05-08T13:52:04.671Z,101832.34
2023-05-08T13:57:08.531Z,101829.56
2023-05-08T14:02:11.304Z,101842.81
2023-05-08T14:07:14.048Z,101840.00
2023-05-08T14:12:16.921Z,101840.00
2023-05-08T14:17:19.556Z,101833.44
2023-05-08T14:22:22.106Z,101816.94
2023-05-08T14:27:24.640Z,101814.00
2023-05-08T14:32:27.284Z,101821.19
2023-05-08T14:37:29.850Z,101819.72
2023-05-08T14:42:33.800Z,101814.47
2023-05-08T14:47:36.483Z,101802.47
2023-05-08T14:52:39.022Z,101823.47
2023-05-08T14:57:41.486Z,101833.13
2023-05-08T15:02:44.426Z,101825.31
2023-05-08T15:12:50.000Z,101842.03
2023-05-08T15:17:52.655Z,101845.66
2023-05-08T15:22:55.202Z,101835.19
2023-05-08T15:28:00.816Z,101826.13
2023-05-08T15:33:03.978Z,101817.22
2023-05-08T15:38:07.625Z,101823.88
2023-05-08T15:43:10.300Z,101824.09
2023-05-08T15:48:12.936Z,101825.00
2023-05-08T15:53:15.611Z,101830.41
2023-05-08T15:58:18.150Z,101850.13
2023-05-08T16:03:20.896Z,101825.66
2023-05-08T16:08:23.688Z,101822.94
2023-05-08T16:13:26.350Z,101828.16
2023-05-08T16:18:28.915Z,101818.28
2023-05-08T16:23:31.431Z,101835.31
2023-05-08T16:28:33.957Z,101829.09
2023-05-08T16:33:36.596Z,101832.84
2023-05-08T16:38:39.105Z,101846.41
2023-05-08T16:43:41.661Z,101820.88
2023-05-08T16:48:44.259Z,101862.94
2023-05-08T16:53:46.923Z,101847.16
2023-05-08T16:58:49.579Z,101852.97
2023-05-08T17:03:52.056Z,101849.31
2023-05-08T17:08:54.487Z,101860.84
2023-05-08T17:13:57.197Z,101839.66
2023-05-08T17:19:00.151Z,101851.41
2023-05-08T17:24:02.747Z,101854.03
2023-05-08T17:29:05.323Z,101879.06
2023-05-08T17:34:07.852Z,101881.03
2023-05-08T17:39:10.445Z,101908.66
2023-05-08T17:44:13.198Z,101873.13
2023-05-08T17:49:17.117Z,101873.13
2023-05-08T17:54:21.642Z,101866.16
2023-05-08T17:59:24.207Z,101862.34
2023-05-08T18:04:26.784Z,101877.63
2023-05-08T18:09:29.180Z,101876.22
2023-05-08T18:14:32.631Z,101872.06
2023-05-08T18:19:35.209Z,101870.91
2023-05-08T18:24:38.106Z,101859.59
2023-05-08T18:29:40.767Z,101858.03
2023-05-08T18:34:44.170Z,101866.13
2023-05-08T18:39:46.679Z,101865.81
2023-05-08T18:44:49.242Z,101861.22
2023-05-08T18:49:52.799Z,101859.78
2023-05-08T18:54:56.037Z,101859.56
2023-05-08T18:59:58.477Z,101855.00
2023-05-08T19:05:01.219Z,101849.38
2023-05-08T19:10:06.963Z,101849.47
2023-05-08T19:15:09.993Z,101843.97
2023-05-08T19:20:13.654Z,101840.66
2023-05-08T19:25:16.555Z,101843.25
2023-05-08T19:30:19.151Z,101845.19
2023-05-08T19:35:21.875Z,101842.19
2023-05-08T19:40:24.473Z,101841.34
2023-05-08T19:45:27.034Z,101844.97
2023-05-08T19:50:29.597Z,101855.09
2023-05-08T19:55:32.247Z,101859.53
2023-05-08T20:00:34.959Z,101861.41
2023-05-08T20:05:38.166Z,101863.31
2023-05-08T20:10:41.472Z,101858.91
2023-05-08T20:15:44.087Z,101861.13
2023-05-08T20:20:46.613Z,101864.53
2023-05-08T20:25:49.221Z,101864.53
2023-05-08T20:30:52.224Z,101861.44
2023-05-08T20:35:55.050Z,101860.38
2023-05-08T20:41:00.825Z,101855.75
2023-05-08T20:46:04.098Z,101855.97
2023-05-08T20:51:06.697Z,101849.16
2023-05-08T20:56:11.869Z,101858.78
2023-05-08T21:01:14.368Z,101862.56
2023-05-08T21:06:16.960Z,101850.25
2023-05-08T21:11:19.439Z,101854.19
2023-05-08T21:16:22.360Z,101851.75
2023-05-08T21:21:25.654Z,101855.84
2023-05-08T21:26:28.281Z,101854.72
2023-05-08T21:31:37.444Z,101853.31
2023-05-08T21:36:39.967Z,101847.50
2023-05-08T21:41:45.501Z,101846.16
2023-05-08T21:46:48.244Z,101847.34
2023-05-08T21:51:50.903Z,101842.88
2023-05-08T21:56:53.392Z,101847.03
2023-05-08T22:01:56.147Z,101848.56
2023-05-08T22:06:58.694Z,101847.41
2023-05-08T22:12:01.235Z,101843.56
2023-05-08T22:17:03.846Z,101845.50
2023-05-08T22:22:06.669Z,101840.31
2023-05-08T22:27:09.157Z,101838.31
2023-05-08T22:32:11.698Z,101834.63
2023-05-08T22:37:14.205Z,101831.28
2023-05-08T22:42:17.260Z,101825.88
2023-05-08T22:47:19.785Z,101832.56
2023-05-08T22:52:22.327Z,101833.59
2023-05-08T22:57:24.767Z,101834.06
2023-05-08T23:02:33.158Z,101839.34
2023-05-08T23:07:35.700Z,101831.59
2023-05-08T23:12:38.144Z,101838.91
2023-05-08T23:17:40.593Z,101842.94
2023-05-08T23:22:43.121Z,101838.94
2023-05-08T23:27:45.704Z,101827.09
2023-05-08T23:32:49.652Z,101836.34
2023-05-08T23:37:52.187Z,101839.81
2023-05-08T23:42:54.728Z,101845.63
2023-05-08T23:47:57.597Z,101848.78
2023-05-08T23:53:00.158Z,101844.53
2023-05-08T23:58:03.000Z,101833.13
